Terminal Aerodrome Forecast
Issued by NWS Billings, MT

Home | Current Version | Previous Version | Graphics & Text | Print | Product List | Glossary On
Versions: 1 2 3 4 5 6 7 8 9 10 11 12 13 14 15 16 17 18 19 20 21 22 23 24 25 26 27 28 29 30 31
000
FTUS45 KBYZ 011120
TAFMLS
TAF
KMLS 011120Z 0112/0212 26009KT P6SM VCSH SCT070 BKN120
     FM011600 29011G18KT P6SM VCTS SCT070CB BKN100
     FM012200 29011KT P6SM SCT070
     FM020200 25007KT P6SM SCT060=

USA.gov is the U.S. government's official web portal to all federal, state and local government web resources and services.